Time;durP1;ratioP1;P1;durP2;ratioP2;P2;SDS_P1;SDS_P2;PMS_P1;PMS_P2;Temp;Humidity;BMP_temperature;BMP_pressure;BME280_temperature;BME280_humidity;BME280_pressure;Samples;Min_cycle;Max_cycle;Signal;HPM_P1;HPM_P2
2022/04/26 03:37:05;;;;;;;;;;;14.00;55.00;;;;;;2380667;54;20077;-75
2022/04/26 03:39:33;;;;;;;;;;;14.00;55.00;;;;;;2632330;52;20042;-74
2022/04/26 03:42:00;;;;;;;;;;;13.90;54.90;;;;;;2374973;53;20114;-75
2022/04/26 03:44:26;;;;;;;;;;;13.90;55.00;;;;;;2377783;54;20310;-75
2022/04/26 03:46:52;;;;;;;;;;;13.90;55.00;;;;;;2488083;52;20133;-75
2022/04/26 03:49:19;;;;;;;;;;;13.90;55.00;;;;;;2377635;53;20070;-75
2022/04/26 03:51:46;;;;;;;;;;;13.90;55.00;;;;;;2376958;53;20073;-75
2022/04/26 03:54:12;;;;;;;;;;;13.90;55.00;;;;;;2387735;52;20066;-74
2022/04/26 03:56:39;;;;;;;;;;;13.90;55.00;;;;;;2374759;53;20168;-74
2022/04/26 03:59:05;;;;;;;;;;;13.90;55.00;;;;;;2384434;53;20070;-75
2022/04/26 04:01:32;;;;;;;;;;;13.90;55.00;;;;;;2526674;52;20101;-75
2022/04/26 04:03:59;;;;;;;;;;;13.90;55.00;;;;;;2377549;53;20074;-74
2022/04/26 04:06:25;;;;;;;;;;;13.90;55.60;;;;;;2427830;52;20079;-74
2022/04/26 04:08:52;;;;;;;;;;;13.90;55.10;;;;;;2377126;53;20117;-74
2022/04/26 04:11:18;;;;;;;;;;;13.90;55.10;;;;;;2376365;54;20082;-74
2022/04/26 04:13:55;;;;;;;;;;;13.90;55.10;;;;;;2549086;52;20156;-74
2022/04/26 04:16:21;;;;;;;;;;;13.90;55.10;;;;;;2628125;52;20179;-75
2022/04/26 04:21:33;;;;;;;;;;;13.90;55.10;;;;;;2376861;53;20073;-74
2022/04/26 04:23:59;;;;;;;;;;;13.90;55.10;;;;;;2374871;54;20495;-75
2022/04/26 04:26:26;;;;;;;;;;;13.90;55.20;;;;;;2400888;52;20122;-76
2022/04/26 04:28:52;;;;;;;;;;;13.80;55.70;;;;;;2375177;54;20623;-74
2022/04/26 04:31:19;;;;;;;;;;;13.80;55.10;;;;;;2628736;52;20483;-75
2022/04/26 04:33:45;;;;;;;;;;;13.90;55.20;;;;;;2397681;52;20073;-74
2022/04/26 04:36:11;;;;;;;;;;;13.90;55.10;;;;;;2405029;52;20719;-77
2022/04/26 04:38:37;;;;;;;;;;;13.80;55.10;;;;;;2415131;52;20184;-75
2022/04/26 04:41:05;;;;;;;;;;;13.90;55.20;;;;;;2375461;54;20085;-75
2022/04/26 04:43:32;;;;;;;;;;;13.80;55.10;;;;;;2375267;54;20298;-75
2022/04/26 04:45:58;;;;;;;;;;;13.70;55.00;;;;;;2375339;54;20609;-74
2022/04/26 04:48:24;;;;;;;;;;;13.80;55.10;;;;;;2379797;53;20069;-74
2022/04/26 04:50:51;;;;;;;;;;;13.80;55.10;;;;;;2610319;52;20082;-75
2022/04/26 04:53:18;;;;;;;;;;;13.80;55.10;;;;;;2376614;53;20050;-75
2022/04/26 04:55:44;;;;;;;;;;;13.80;55.20;;;;;;2383365;53;20125;-75
2022/04/26 04:58:11;;;;;;;;;;;13.80;55.20;;;;;;2624885;52;20082;-75
2022/04/26 05:00:37;;;;;;;;;;;13.80;55.20;;;;;;2425074;52;20113;-76
2022/04/26 05:03:04;;;;;;;;;;;13.80;55.20;;;;;;2441316;52;20088;-74
2022/04/26 05:05:30;;;;;;;;;;;13.80;55.20;;;;;;2377029;53;20097;-74
2022/04/26 05:07:58;;;;;;;;;;;13.80;55.20;;;;;;2377012;53;20090;-75
2022/04/26 05:10:24;;;;;;;;;;;13.80;55.20;;;;;;2504445;52;20109;-75
2022/04/26 05:12:50;;;;;;;;;;;13.80;55.20;;;;;;2376950;54;20078;-75
2022/04/26 05:15:18;;;;;;;;;;;13.80;55.30;;;;;;2380650;53;20122;-74
2022/04/26 05:17:44;;;;;;;;;;;13.80;55.30;;;;;;2469779;52;20120;-76
2022/04/26 05:20:11;;;;;;;;;;;13.70;55.20;;;;;;2376932;54;20105;-75
2022/04/26 05:25:22;;;;;;;;;;;13.80;55.80;;;;;;2376854;53;20069;-75
2022/04/26 05:27:51;;;;;;;;;;;13.70;55.10;;;;;;2376751;53;20114;-75
2022/04/26 05:30:17;;;;;;;;;;;13.70;55.10;;;;;;2422070;52;20201;-75
2022/04/26 05:32:43;;;;;;;;;;;13.70;55.20;;;;;;2380121;53;20086;-75
2022/04/26 05:35:11;;;;;;;;;;;13.70;55.20;;;;;;2373768;53;20089;-75
2022/04/26 05:37:37;;;;;;;;;;;13.70;55.20;;;;;;2415368;52;20078;-75
2022/04/26 05:40:03;;;;;;;;;;;13.70;55.30;;;;;;2406596;52;20086;-75
2022/04/26 05:42:30;;;;;;;;;;;13.70;55.30;;;;;;2376111;54;20138;-75
2022/04/26 05:44:56;;;;;;;;;;;13.70;55.30;;;;;;2376855;53;20078;-75
2022/04/26 05:47:22;;;;;;;;;;;13.70;55.30;;;;;;2379317;53;20125;-76
2022/04/26 05:49:49;;;;;;;;;;;13.70;55.30;;;;;;2377258;53;20074;-75
2022/04/26 05:52:15;;;;;;;;;;;13.70;55.30;;;;;;2387024;52;20134;-75
2022/04/26 05:54:42;;;;;;;;;;;13.70;55.30;;;;;;2362543;53;20129;-76
2022/04/26 05:57:09;;;;;;;;;;;13.70;55.30;;;;;;2394315;52;20093;-75
2022/04/26 05:59:35;;;;;;;;;;;13.70;55.30;;;;;;2629610;52;20110;-75
2022/04/26 06:02:01;;;;;;;;;;;13.70;55.40;;;;;;2512083;52;20077;-76
2022/04/26 06:04:29;;;;;;;;;;;13.80;55.50;;;;;;2376871;54;20359;-75
2022/04/26 06:06:55;;;;;;;;;;;13.80;55.50;;;;;;2376675;53;20065;-74
2022/04/26 06:09:21;;;;;;;;;;;13.80;55.50;;;;;;2575263;52;20125;-76
2022/04/26 06:11:48;;;;;;;;;;;13.80;55.50;;;;;;2501248;52;20113;-75
2022/04/26 06:14:15;;;;;;;;;;;13.80;55.50;;;;;;2376377;54;20082;-76
2022/04/26 06:16:41;;;;;;;;;;;13.80;55.50;;;;;;2625613;52;20308;-74
2022/04/26 06:19:08;;;;;;;;;;;13.90;55.50;;;;;;2376469;53;20161;-76
2022/04/26 06:21:34;;;;;;;;;;;13.80;55.40;;;;;;2376646;53;20370;-75
2022/04/26 06:24:01;;;;;;;;;;;13.90;55.60;;;;;;2550052;52;20054;-75
2022/04/26 06:26:27;;;;;;;;;;;13.90;55.50;;;;;;2629655;52;20118;-75
2022/04/26 06:28:53;;;;;;;;;;;14.00;55.60;;;;;;2387801;52;20061;-75
2022/04/26 06:31:20;;;;;;;;;;;14.00;55.60;;;;;;2368301;53;20073;-75
2022/04/26 06:33:46;;;;;;;;;;;14.00;55.50;;;;;;2469003;53;20061;-76
2022/04/26 06:36:12;;;;;;;;;;;14.00;55.50;;;;;;2379972;53;20677;-76
2022/04/26 06:38:38;;;;;;;;;;;14.00;55.50;;;;;;2376535;53;20133;-74
2022/04/26 06:41:05;;;;;;;;;;;14.00;55.50;;;;;;2376208;54;20161;-76
2022/04/26 06:43:34;;;;;;;;;;;14.10;55.70;;;;;;2376311;54;20062;-75
2022/04/26 06:46:01;;;;;;;;;;;14.10;55.80;;;;;;2376695;54;20074;-75
2022/04/26 06:48:28;;;;;;;;;;;14.10;55.90;;;;;;2488086;52;20081;-75
2022/04/26 06:50:55;;;;;;;;;;;14.30;56.20;;;;;;2376484;54;20122;-74
2022/04/26 06:53:24;;;;;;;;;;;14.40;56.30;;;;;;2376619;53;20318;-75
2022/04/26 06:55:50;;;;;;;;;;;14.50;56.50;;;;;;2398108;53;20608;-76
2022/04/26 06:58:19;;;;;;;;;;;14.70;57.60;;;;;;2376757;54;20621;-75
2022/04/26 07:00:46;;;;;;;;;;;14.80;57.20;;;;;;2376307;54;20319;-74
2022/04/26 07:03:14;;;;;;;;;;;15.00;57.40;;;;;;2376910;54;20310;-75
2022/04/26 07:05:41;;;;;;;;;;;15.20;57.40;;;;;;2376806;54;20114;-75
2022/04/26 07:08:07;;;;;;;;;;;15.30;57.10;;;;;;2376227;54;20098;-77
2022/04/26 07:10:34;;;;;;;;;;;15.50;57.00;;;;;;2376729;53;20469;-74
2022/04/26 07:13:00;;;;;;;;;;;15.60;56.80;;;;;;2376211;53;20075;-74
2022/04/26 07:15:28;;;;;;;;;;;15.70;56.80;;;;;;2629802;52;20133;-75
2022/04/26 07:17:54;;;;;;;;;;;15.80;56.60;;;;;;2419537;52;20070;-74
2022/04/26 07:20:21;;;;;;;;;;;15.90;56.50;;;;;;2377985;53;20360;-74
2022/04/26 07:22:48;;;;;;;;;;;15.90;56.20;;;;;;2375668;54;20118;-74
2022/04/26 07:25:15;;;;;;;;;;;16.00;56.10;;;;;;2376464;54;21002;-75
2022/04/26 07:27:42;;;;;;;;;;;16.00;55.80;;;;;;2377222;53;20121;-75
2022/04/26 07:30:08;;;;;;;;;;;16.00;55.70;;;;;;2376499;53;20073;-75
2022/04/26 07:35:18;;;;;;;;;;;16.00;55.50;;;;;;2630359;52;20436;-75
2022/04/26 07:37:45;;;;;;;;;;;16.00;55.50;;;;;;2376353;54;20069;-76
2022/04/26 07:40:11;;;;;;;;;;;16.10;55.60;;;;;;2423921;52;20336;-73
2022/04/26 07:42:37;;;;;;;;;;;16.10;55.60;;;;;;2376387;54;20113;-74
2022/04/26 07:45:07;;;;;;;;;;;16.10;55.50;;;;;;2380427;53;20149;-73
2022/04/26 07:47:33;;;;;;;;;;;16.10;55.40;;;;;;2601383;52;20085;-74
2022/04/26 07:50:01;;;;;;;;;;;16.10;55.30;;;;;;2376973;54;20089;-74
2022/04/26 07:52:28;;;;;;;;;;;16.10;55.20;;;;;;2376843;54;20125;-75
2022/04/26 07:54:54;;;;;;;;;;;16.10;55.20;;;;;;2379980;53;20118;-76
2022/04/26 07:57:20;;;;;;;;;;;16.10;55.10;;;;;;2375582;53;20094;-74
2022/04/26 07:59:46;;;;;;;;;;;16.10;55.10;;;;;;2420015;52;20085;-76
2022/04/26 08:02:14;;;;;;;;;;;16.10;55.10;;;;;;2374958;53;20116;-75
2022/04/26 08:04:44;;;;;;;;;;;16.20;55.20;;;;;;2376429;53;20117;-75
2022/04/26 08:07:10;;;;;;;;;;;16.20;55.20;;;;;;2471853;52;20062;-75
2022/04/26 08:09:39;;;;;;;;;;;16.10;55.10;;;;;;2378024;53;20069;-75
2022/04/26 08:12:06;;;;;;;;;;;16.10;55.10;;;;;;2374887;54;20077;-74
2022/04/26 08:14:32;;;;;;;;;;;16.20;55.10;;;;;;2485920;52;20073;-75
2022/04/26 08:16:59;;;;;;;;;;;16.20;55.10;;;;;;2374372;54;20081;-75
2022/04/26 08:19:26;;;;;;;;;;;16.20;55.10;;;;;;2375829;53;20488;-75
2022/04/26 08:21:54;;;;;;;;;;;16.20;55.10;;;;;;2502252;52;20125;-75
2022/04/26 08:27:30;;;;;;;;;;;16.20;55.20;;;;;;2477649;52;20132;-74
2022/04/26 08:29:56;;;;;;;;;;;16.30;55.40;;;;;;2380555;53;20133;-74
2022/04/26 08:32:28;;;;;;;;;;;16.50;56.20;;;;;;2376477;53;20081;-76
2022/04/26 08:34:59;;;;;;;;;;;16.60;56.30;;;;;;2448259;52;20050;-76
2022/04/26 08:37:25;;;;;;;;;;;16.70;55.90;;;;;;2377163;53;20351;-74
2022/04/26 08:39:55;;;;;;;;;;;16.80;55.90;;;;;;2513724;52;20484;-74
2022/04/26 08:42:39;;;;;;;;;;;17.00;55.80;;;;;;2376627;53;20058;-75
2022/04/26 08:45:10;;;;;;;;;;;17.00;55.50;;;;;;2377615;54;20122;-75
2022/04/26 08:53:06;;;;;;;;;;;17.10;54.90;;;;;;2375970;54;20069;-74
2022/04/26 08:55:33;;;;;;;;;;;17.10;54.70;;;;;;2477124;52;20343;-74
2022/04/26 08:57:59;;;;;;;;;;;17.10;54.50;;;;;;2528673;52;20097;-74
2022/04/26 09:00:25;;;;;;;;;;;17.10;54.40;;;;;;2359636;53;20134;-74
2022/04/26 09:03:01;;;;;;;;;;;17.10;54.30;;;;;;2425589;52;20083;-76
2022/04/26 09:05:27;;;;;;;;;;;17.00;54.10;;;;;;2375040;53;20085;-76
2022/04/26 09:07:53;;;;;;;;;;;17.00;54.00;;;;;;2374692;53;20380;-76
2022/04/26 09:10:20;;;;;;;;;;;16.90;53.90;;;;;;2375925;53;20327;-74
2022/04/26 09:13:04;;;;;;;;;;;16.90;53.90;;;;;;2629573;52;20113;-74
2022/04/26 09:15:38;;;;;;;;;;;16.80;53.80;;;;;;2456605;52;20110;-76
2022/04/26 09:19:07;;;;;;;;;;;16.70;53.70;;;;;;2379881;53;20054;-75
2022/04/26 09:21:34;;;;;;;;;;;16.70;53.70;;;;;;2504088;52;20326;-74
2022/04/26 09:24:01;;;;;;;;;;;16.60;53.60;;;;;;2377057;53;20105;-74
2022/04/26 09:26:32;;;;;;;;;;;16.60;53.60;;;;;;2514811;52;20070;-73
2022/04/26 09:28:58;;;;;;;;;;;16.50;53.60;;;;;;2377457;53;20069;-75
2022/04/26 09:31:27;;;;;;;;;;;16.40;53.50;;;;;;2386481;52;20098;-73
2022/04/26 09:33:56;;;;;;;;;;;16.50;53.70;;;;;;2379479;53;20098;-74
2022/04/26 09:36:24;;;;;;;;;;;16.40;53.90;;;;;;2620288;52;20070;-75
2022/04/26 09:38:55;;;;;;;;;;;16.50;54.20;;;;;;2375423;54;20417;-74
2022/04/26 09:41:21;;;;;;;;;;;16.60;54.60;;;;;;2375391;54;20078;-75
2022/04/26 09:44:51;;;;;;;;;;;16.70;55.20;;;;;;2375227;53;20069;-76
2022/04/26 09:47:23;;;;;;;;;;;16.90;56.30;;;;;;2375761;53;20057;-76
2022/04/26 09:49:50;;;;;;;;;;;17.40;56.30;;;;;;2375096;53;20421;-75
2022/04/26 09:52:19;;;;;;;;;;;17.60;56.20;;;;;;2374496;54;20636;-75
2022/04/26 09:54:45;;;;;;;;;;;17.80;56.00;;;;;;2373815;54;21392;-74
2022/04/26 09:57:11;;;;;;;;;;;18.10;56.10;;;;;;2375028;53;20567;-75
2022/04/26 09:59:56;;;;;;;;;;;18.30;56.30;;;;;;2398609;52;20061;-75
2022/04/26 10:02:24;;;;;;;;;;;18.50;56.20;;;;;;2378563;54;20159;-75
2022/04/26 10:04:52;;;;;;;;;;;18.70;55.80;;;;;;2374472;53;20110;-75
2022/04/26 10:07:19;;;;;;;;;;;18.90;55.30;;;;;;2375210;53;20081;-76
2022/04/26 10:09:47;;;;;;;;;;;18.90;54.60;;;;;;2629781;52;20220;-75
2022/04/26 10:12:13;;;;;;;;;;;19.00;54.20;;;;;;2529383;52;20121;-74
2022/04/26 10:14:40;;;;;;;;;;;19.00;54.00;;;;;;2373144;53;20458;-76
2022/04/26 10:17:07;;;;;;;;;;;19.00;54.00;;;;;;2630402;52;20114;-75
2022/04/26 10:19:40;;;;;;;;;;;19.00;53.60;;;;;;2377374;53;20118;-74
2022/04/26 10:22:16;;;;;;;;;;;19.00;53.30;;;;;;2573712;52;20101;-74
2022/04/26 10:25:02;;;;;;;;;;;19.00;53.00;;;;;;2376954;54;20110;-74
2022/04/26 10:27:29;;;;;;;;;;;18.90;52.70;;;;;;2377472;53;20086;-74
2022/04/26 10:29:55;;;;;;;;;;;18.90;53.00;;;;;;2436760;52;20141;-74
2022/04/26 10:32:28;;;;;;;;;;;18.80;53.20;;;;;;2379104;52;20814;-74
2022/04/26 10:35:15;;;;;;;;;;;18.90;53.80;;;;;;2377386;54;20069;-75
2022/04/26 10:37:44;;;;;;;;;;;19.00;54.30;;;;;;2409288;52;20444;-75
2022/04/26 10:40:10;;;;;;;;;;;19.10;54.50;;;;;;2377207;53;20125;-75
2022/04/26 10:42:38;;;;;;;;;;;19.20;54.10;;;;;;2377265;53;20679;-74
2022/04/26 10:45:18;;;;;;;;;;;19.20;53.40;;;;;;2377172;53;20070;-73
2022/04/26 10:47:45;;;;;;;;;;;19.20;52.60;;;;;;2377342;54;20070;-76
2022/04/26 10:50:25;;;;;;;;;;;19.10;51.70;;;;;;2377494;54;20073;-76
2022/04/26 10:52:51;;;;;;;;;;;19.00;50.90;;;;;;2377109;54;20102;-73
2022/04/26 10:55:18;;;;;;;;;;;18.80;50.60;;;;;;2377493;53;20419;-75
2022/04/26 10:57:45;;;;;;;;;;;18.60;50.50;;;;;;2395335;52;20070;-74
2022/04/26 11:00:15;;;;;;;;;;;18.50;50.70;;;;;;2515934;52;20169;-73
2022/04/26 11:02:42;;;;;;;;;;;18.40;51.10;;;;;;2375446;53;20089;-75
2022/04/26 11:05:10;;;;;;;;;;;18.40;51.30;;;;;;2375496;53;20066;-73
2022/04/26 11:07:37;;;;;;;;;;;18.30;51.30;;;;;;2374821;54;20105;-75
2022/04/26 11:10:05;;;;;;;;;;;18.30;51.40;;;;;;2419003;52;20058;-74
2022/04/26 11:12:33;;;;;;;;;;;18.30;51.30;;;;;;2376244;53;20062;-76
2022/04/26 11:15:03;;;;;;;;;;;18.30;51.30;;;;;;2379508;52;20065;-74
2022/04/26 11:17:30;;;;;;;;;;;18.30;51.30;;;;;;2492961;52;20326;-74
2022/04/26 11:20:00;;;;;;;;;;;18.20;51.40;;;;;;2377027;54;20129;-74
2022/04/26 11:22:27;;;;;;;;;;;18.30;51.70;;;;;;2377530;54;20070;-73
2022/04/26 11:28:09;;;;;;;;;;;18.30;51.70;;;;;;2501124;52;20082;-73
2022/04/26 11:30:39;;;;;;;;;;;18.50;51.80;;;;;;2554039;52;20353;-74
2022/04/26 11:33:11;;;;;;;;;;;18.50;51.70;;;;;;2377234;53;20054;-73
2022/04/26 11:35:38;;;;;;;;;;;18.50;51.50;;;;;;2392514;52;20074;-73
2022/04/26 11:38:05;;;;;;;;;;;18.50;51.30;;;;;;2377333;54;20062;-73
2022/04/26 11:40:32;;;;;;;;;;;18.50;51.00;;;;;;2377503;53;20082;-75
2022/04/26 11:43:06;;;;;;;;;;;18.50;50.90;;;;;;2446445;52;20065;-73
2022/04/26 11:45:36;;;;;;;;;;;18.40;50.80;;;;;;2380540;53;20133;-73
2022/04/26 11:48:06;;;;;;;;;;;18.40;50.60;;;;;;2438123;52;20133;-75
2022/04/26 11:50:33;;;;;;;;;;;18.40;50.50;;;;;;2377473;53;20066;-74
2022/04/26 11:53:01;;;;;;;;;;;18.40;49.80;;;;;;2380610;53;20133;-74
2022/04/26 11:55:34;;;;;;;;;;;18.30;49.70;;;;;;2400280;52;20426;-75
2022/04/26 11:58:07;;;;;;;;;;;18.20;49.80;;;;;;2377688;53;20078;-73
2022/04/26 12:00:34;;;;;;;;;;;18.20;50.10;;;;;;2377829;54;20130;-73
2022/04/26 12:03:02;;;;;;;;;;;18.20;50.40;;;;;;2387846;52;20102;-75
2022/04/26 12:05:28;;;;;;;;;;;18.20;50.60;;;;;;2406893;52;20086;-73
2022/04/26 12:07:54;;;;;;;;;;;18.20;50.90;;;;;;2371901;53;20117;-73
2022/04/26 12:10:23;;;;;;;;;;;18.30;51.10;;;;;;2517839;52;20121;-73
2022/04/26 12:12:54;;;;;;;;;;;18.30;51.20;;;;;;2381128;53;20061;-75
2022/04/26 12:15:23;;;;;;;;;;;18.40;51.30;;;;;;2430269;52;20078;-73
2022/04/26 12:18:00;;;;;;;;;;;18.50;51.10;;;;;;2440514;52;20115;-74
2022/04/26 12:20:28;;;;;;;;;;;18.60;50.90;;;;;;2367602;53;20348;-73
2022/04/26 12:22:54;;;;;;;;;;;18.70;51.10;;;;;;2397487;53;20078;-74
2022/04/26 12:25:21;;;;;;;;;;;18.70;51.00;;;;;;2377781;53;20303;-76
2022/04/26 12:28:00;;;;;;;;;;;18.70;50.70;;;;;;2356407;53;20062;-74
2022/04/26 12:30:30;;;;;;;;;;;18.70;50.60;;;;;;2439109;52;20842;-76
2022/04/26 12:32:57;;;;;;;;;;;18.70;50.90;;;;;;2400410;53;20170;-78
2022/04/26 12:35:23;;;;;;;;;;;18.70;51.10;;;;;;2465359;52;20403;-74
2022/04/26 12:38:52;;;;;;;;;;;18.70;51.30;;;;;;2379457;53;20126;-75
2022/04/26 12:41:21;;;;;;;;;;;18.70;51.50;;;;;;2357570;53;20058;-75
2022/04/26 12:43:59;;;;;;;;;;;18.80;51.50;;;;;;2385162;52;20133;-77
2022/04/26 12:46:25;;;;;;;;;;;18.90;51.50;;;;;;2377264;54;20057;-75
2022/04/26 12:51:54;;;;;;;;;;;18.90;51.20;;;;;;2442332;52;20204;-76
2022/04/26 12:54:20;;;;;;;;;;;18.90;51.00;;;;;;2376926;54;20081;-75
2022/04/26 12:56:59;;;;;;;;;;;18.90;50.90;;;;;;2500621;52;20182;-75
2022/04/26 12:59:33;;;;;;;;;;;18.80;50.70;;;;;;2377252;54;20180;-74
2022/04/26 13:02:01;;;;;;;;;;;18.80;50.70;;;;;;2408412;52;20117;-74
2022/04/26 13:04:27;;;;;;;;;;;18.80;50.70;;;;;;2629716;52;20388;-74
2022/04/26 13:06:53;;;;;;;;;;;18.70;50.70;;;;;;2376815;54;20054;-74
2022/04/26 13:09:31;;;;;;;;;;;18.70;50.90;;;;;;2377265;53;20185;-76
2022/04/26 13:11:58;;;;;;;;;;;18.70;51.00;;;;;;2383132;54;20062;-74
2022/04/26 13:14:26;;;;;;;;;;;18.70;51.10;;;;;;2370112;53;20089;-75
2022/04/26 13:17:07;;;;;;;;;;;18.80;51.30;;;;;;2377322;53;20732;-74
2022/04/26 13:19:33;;;;;;;;;;;18.80;51.20;;;;;;2411827;52;20078;-75
2022/04/26 13:21:59;;;;;;;;;;;19.00;51.70;;;;;;2377186;54;20079;-75
2022/04/26 13:24:28;;;;;;;;;;;19.00;51.60;;;;;;2436196;52;20125;-75
2022/04/26 13:26:54;;;;;;;;;;;19.20;51.80;;;;;;2377118;53;20685;-75
2022/04/26 13:29:21;;;;;;;;;;;19.40;51.90;;;;;;2376678;53;20346;-74
2022/04/26 13:31:47;;;;;;;;;;;19.50;51.80;;;;;;2393193;52;20074;-75
2022/04/26 13:34:13;;;;;;;;;;;19.50;51.30;;;;;;2377578;53;20176;-75
2022/04/26 13:36:59;;;;;;;;;;;19.50;50.40;;;;;;2562650;52;20165;-75
2022/04/26 13:39:25;;;;;;;;;;;19.40;49.80;;;;;;2377481;54;20080;-74
2022/04/26 13:41:52;;;;;;;;;;;19.20;50.00;;;;;;2376509;54;20866;-73
2022/04/26 13:44:21;;;;;;;;;;;19.00;49.20;;;;;;2377361;54;20058;-73
2022/04/26 13:46:57;;;;;;;;;;;18.80;49.00;;;;;;2377198;54;20361;-73
2022/04/26 13:49:24;;;;;;;;;;;18.70;49.20;;;;;;2375701;54;20137;-74
2022/04/26 13:51:51;;;;;;;;;;;18.50;49.30;;;;;;2377077;54;20078;-75
2022/04/26 13:54:17;;;;;;;;;;;18.40;49.50;;;;;;2377083;53;20126;-75
2022/04/26 13:56:44;;;;;;;;;;;18.30;49.70;;;;;;2631043;52;20340;-73
2022/04/26 13:59:11;;;;;;;;;;;18.20;49.90;;;;;;2379868;53;20441;-75
2022/04/26 14:01:37;;;;;;;;;;;18.20;50.30;;;;;;2376955;53;20544;-75
2022/04/26 14:04:04;;;;;;;;;;;18.20;50.60;;;;;;2377267;54;20078;-74
2022/04/26 14:06:31;;;;;;;;;;;18.30;51.00;;;;;;2357033;53;20086;-74
2022/04/26 14:08:57;;;;;;;;;;;18.40;51.10;;;;;;2376918;53;20121;-74
2022/04/26 14:11:24;;;;;;;;;;;18.50;51.40;;;;;;2378944;53;20113;-73
2022/04/26 14:22:14;;;;;;;;;;;19.10;51.90;;;;;;2404837;52;20540;-75
2022/04/26 14:24:42;;;;;;;;;;;19.20;51.60;;;;;;2378469;53;20130;-74
2022/04/26 14:27:08;;;;;;;;;;;19.30;51.60;;;;;;2458332;52;20596;-75
2022/04/26 14:29:34;;;;;;;;;;;19.40;51.40;;;;;;2373710;53;20303;-74
2022/04/26 14:32:02;;;;;;;;;;;19.50;51.10;;;;;;2486360;52;20485;-74
2022/04/26 14:34:29;;;;;;;;;;;19.50;50.60;;;;;;2537459;52;20098;-74
2022/04/26 14:36:55;;;;;;;;;;;19.50;50.30;;;;;;2502291;52;20363;-74
2022/04/26 14:39:22;;;;;;;;;;;19.50;50.10;;;;;;2375464;54;20079;-75
2022/04/26 14:41:48;;;;;;;;;;;19.50;50.00;;;;;;2374939;54;20078;-73
2022/04/26 14:44:14;;;;;;;;;;;19.50;49.70;;;;;;2416343;52;20089;-74
2022/04/26 14:46:41;;;;;;;;;;;19.40;49.60;;;;;;2375251;53;20401;-74
2022/04/26 14:49:07;;;;;;;;;;;19.40;49.70;;;;;;2378047;53;20383;-74
2022/04/26 14:51:33;;;;;;;;;;;19.50;50.10;;;;;;2374711;53;20070;-73
2022/04/26 14:54:00;;;;;;;;;;;19.50;50.20;;;;;;2379228;54;20066;-73
2022/04/26 14:56:26;;;;;;;;;;;19.60;50.10;;;;;;2503825;52;20054;-73
2022/04/26 14:59:12;;;;;;;;;;;19.70;50.30;;;;;;2377588;54;20050;-75
2022/04/26 15:01:43;;;;;;;;;;;19.80;50.50;;;;;;2376700;53;20130;-73
2022/04/26 15:04:09;;;;;;;;;;;19.90;50.60;;;;;;2630435;52;20065;-73
2022/04/26 15:06:36;;;;;;;;;;;20.00;50.40;;;;;;2384276;53;20129;-72
2022/04/26 15:11:47;;;;;;;;;;;20.20;49.80;;;;;;2380175;53;20085;-73
2022/04/26 15:16:57;;;;;;;;;;;20.20;49.50;;;;;;2628244;52;20138;-73
2022/04/26 15:19:24;;;;;;;;;;;20.10;49.10;;;;;;2381942;53;20121;-73
2022/04/26 15:21:50;;;;;;;;;;;20.10;49.00;;;;;;2361844;53;20070;-73
2022/04/26 15:24:18;;;;;;;;;;;20.00;48.80;;;;;;2393232;52;20078;-73
2022/04/26 15:26:44;;;;;;;;;;;20.00;48.80;;;;;;2353946;52;2797051;-74
2022/04/26 15:29:11;;;;;;;;;;;20.00;48.70;;;;;;2472611;52;20251;-74
2022/04/26 15:31:39;;;;;;;;;;;19.80;48.50;;;;;;2377711;53;20141;-74
2022/04/26 15:34:07;;;;;;;;;;;19.80;48.40;;;;;;2377123;54;20169;-73
2022/04/26 15:36:35;;;;;;;;;;;19.80;48.20;;;;;;2380238;53;20094;-72
2022/04/26 15:39:01;;;;;;;;;;;19.80;48.30;;;;;;2482879;52;20118;-73
2022/04/26 15:41:28;;;;;;;;;;;19.70;48.40;;;;;;2410404;52;20787;-74
2022/04/26 15:43:54;;;;;;;;;;;19.70;48.60;;;;;;2627917;52;20066;-73
2022/04/26 15:46:32;;;;;;;;;;;19.70;48.70;;;;;;2374800;54;20130;-74
2022/04/26 15:48:59;;;;;;;;;;;19.70;48.50;;;;;;2493637;52;20742;-74
2022/04/26 15:51:25;;;;;;;;;;;19.70;48.50;;;;;;2524742;52;20073;-74
2022/04/26 15:53:51;;;;;;;;;;;19.70;48.50;;;;;;2373902;53;20077;-73
2022/04/26 15:56:18;;;;;;;;;;;19.70;48.50;;;;;;2389664;52;20140;-72
2022/04/26 15:58:44;;;;;;;;;;;19.70;48.40;;;;;;2363049;53;20145;-74
2022/04/26 16:01:11;;;;;;;;;;;19.70;48.60;;;;;;2375260;53;20073;-73
2022/04/26 16:03:41;;;;;;;;;;;19.70;48.10;;;;;;2375108;54;20670;-74
2022/04/26 16:06:10;;;;;;;;;;;19.60;47.70;;;;;;2383004;52;20089;-73
2022/04/26 16:08:37;;;;;;;;;;;19.50;48.00;;;;;;2417622;52;20074;-73
2022/04/26 16:22:04;;;;;;;;;;;18.70;46.90;;;;;;2374988;53;20145;-75
2022/04/26 16:24:35;;;;;;;;;;;18.50;46.90;;;;;;2381263;53;20196;-73
2022/04/26 16:27:03;;;;;;;;;;;18.40;47.00;;;;;;2370591;53;20089;-73
2022/04/26 16:29:29;;;;;;;;;;;18.30;47.20;;;;;;2375776;54;20309;-72
2022/04/26 16:31:55;;;;;;;;;;;18.20;47.50;;;;;;2375578;54;20085;-73
2022/04/26 16:34:22;;;;;;;;;;;18.10;47.70;;;;;;2374976;54;20488;-74
2022/04/26 16:36:48;;;;;;;;;;;18.10;47.90;;;;;;2470103;52;20070;-73
2022/04/26 16:39:15;;;;;;;;;;;18.10;48.00;;;;;;2627770;52;20113;-75
2022/04/26 16:41:44;;;;;;;;;;;18.10;48.10;;;;;;2374750;53;20069;-73
2022/04/26 16:44:11;;;;;;;;;;;18.10;48.10;;;;;;2580101;52;20062;-73
2022/04/26 16:46:37;;;;;;;;;;;18.00;48.10;;;;;;2374575;53;20141;-73
2022/04/26 16:49:04;;;;;;;;;;;18.00;48.00;;;;;;2531538;52;20480;-73
2022/04/26 16:51:33;;;;;;;;;;;18.00;48.10;;;;;;2375544;53;20121;-73
2022/04/26 16:53:59;;;;;;;;;;;18.00;48.00;;;;;;2628246;52;20173;-73
2022/04/26 16:56:25;;;;;;;;;;;17.90;47.80;;;;;;2391874;52;20058;-73
2022/04/26 16:58:52;;;;;;;;;;;17.90;47.80;;;;;;2408138;52;20358;-73
2022/04/26 17:01:18;;;;;;;;;;;17.80;47.70;;;;;;2375173;53;20078;-73
2022/04/26 17:03:44;;;;;;;;;;;17.80;47.70;;;;;;2381691;53;20078;-74
2022/04/26 17:06:10;;;;;;;;;;;17.70;47.60;;;;;;2368852;53;20377;-73
2022/04/26 17:08:37;;;;;;;;;;;17.60;47.50;;;;;;2433662;52;20118;-72
2022/04/26 17:11:41;;;;;;;;;;;17.50;47.50;;;;;;2375050;53;20354;-73
2022/04/26 17:14:10;;;;;;;;;;;17.50;47.60;;;;;;2375217;54;20082;-73
2022/04/26 17:16:39;;;;;;;;;;;17.40;47.70;;;;;;2540317;52;20097;-74
2022/04/26 17:19:05;;;;;;;;;;;17.30;47.70;;;;;;2378267;53;20081;-74
2022/04/26 17:21:32;;;;;;;;;;;17.20;47.80;;;;;;2375099;53;20065;-75
2022/04/26 17:23:58;;;;;;;;;;;17.10;47.80;;;;;;2375194;53;20777;-74
2022/04/26 17:26:24;;;;;;;;;;;17.10;48.00;;;;;;2511589;52;20410;-75
2022/04/26 17:28:51;;;;;;;;;;;17.00;48.00;;;;;;2421260;52;20062;-75
2022/04/26 17:31:19;;;;;;;;;;;16.90;48.10;;;;;;2396289;52;20381;-75
2022/04/26 17:33:46;;;;;;;;;;;16.80;48.20;;;;;;2377424;53;20138;-77
2022/04/26 17:36:12;;;;;;;;;;;16.70;48.30;;;;;;2385397;52;20077;-74
2022/04/26 17:38:39;;;;;;;;;;;16.70;48.40;;;;;;2377559;54;20140;-75
2022/04/26 17:41:05;;;;;;;;;;;16.60;48.50;;;;;;2378109;53;20177;-76
2022/04/26 17:43:36;;;;;;;;;;;16.50;48.50;;;;;;2377438;53;20090;-75
2022/04/26 17:46:02;;;;;;;;;;;16.40;48.60;;;;;;2378549;52;20109;-75
2022/04/26 17:48:28;;;;;;;;;;;16.40;48.70;;;;;;2532360;52;20106;-75
2022/04/26 17:50:56;;;;;;;;;;;16.30;48.80;;;;;;2377283;54;20093;-75
2022/04/26 17:58:51;;;;;;;;;;;16.10;49.00;;;;;;2376897;54;20112;-75
2022/04/26 18:01:20;;;;;;;;;;;16.10;49.10;;;;;;2377452;54;20070;-74
2022/04/26 18:03:49;;;;;;;;;;;16.00;49.10;;;;;;2377312;54;20283;-75
2022/04/26 18:06:16;;;;;;;;;;;16.00;49.30;;;;;;2472869;52;20137;-75
2022/04/26 18:08:43;;;;;;;;;;;15.90;49.30;;;;;;2480712;52;20086;-75
2022/04/26 18:11:10;;;;;;;;;;;15.90;49.40;;;;;;2392797;52;20153;-75
2022/04/26 18:13:36;;;;;;;;;;;15.80;49.40;;;;;;2584771;52;20617;-75
2022/04/26 18:16:05;;;;;;;;;;;15.80;49.50;;;;;;2556917;52;20097;-75
2022/04/26 18:18:32;;;;;;;;;;;15.80;49.50;;;;;;2460916;52;20118;-75
2022/04/26 18:20:59;;;;;;;;;;;15.70;49.50;;;;;;2440347;52;20138;-75
2022/04/26 18:23:26;;;;;;;;;;;15.70;49.60;;;;;;2376460;54;20081;-75
2022/04/26 18:28:37;;;;;;;;;;;15.60;49.60;;;;;;2557369;53;20129;-75
2022/04/26 18:31:03;;;;;;;;;;;15.60;49.60;;;;;;2377379;54;20347;-75
2022/04/26 18:33:29;;;;;;;;;;;15.50;49.60;;;;;;2376957;53;20069;-75
2022/04/26 18:35:57;;;;;;;;;;;15.50;49.60;;;;;;2630857;52;20081;-75
2022/04/26 18:38:25;;;;;;;;;;;15.40;49.60;;;;;;2377302;54;20065;-75
2022/04/26 18:40:54;;;;;;;;;;;15.40;49.60;;;;;;2377713;54;20066;-75
2022/04/26 18:43:20;;;;;;;;;;;15.30;49.60;;;;;;2376803;54;20069;-75
2022/04/26 18:45:47;;;;;;;;;;;15.30;50.30;;;;;;2381635;53;20082;-75
2022/04/26 18:48:14;;;;;;;;;;;15.20;49.70;;;;;;2353896;53;20144;-75
2022/04/26 18:50:40;;;;;;;;;;;15.20;49.70;;;;;;2377794;53;20122;-75
2022/04/26 18:53:07;;;;;;;;;;;15.10;49.70;;;;;;2505262;52;20109;-74
2022/04/26 18:55:33;;;;;;;;;;;15.00;49.70;;;;;;2618626;52;20075;-75